sensor_id;sensor_type;location;lat;lon;timestamp;P1;durP1;ratioP1;P2;durP2;ratioP2
53391;SDS011;41667;51.922;8.850;2023-02-02T00:00:52;11.68;;;3.67;;
53391;SDS011;41667;51.922;8.850;2023-02-02T00:03:17;8.45;;;2.80;;
53391;SDS011;41667;51.922;8.850;2023-02-02T00:05:49;18.92;;;2.55;;
53391;SDS011;41667;51.922;8.850;2023-02-02T00:08:18;9.88;;;2.15;;
53391;SDS011;41667;51.922;8.850;2023-02-02T00:10:43;18.13;;;2.97;;
53391;SDS011;41667;51.922;8.850;2023-02-02T00:13:09;6.57;;;2.45;;
53391;SDS011;41667;51.922;8.850;2023-02-02T00:15:34;22.23;;;2.63;;
53391;SDS011;41667;51.922;8.850;2023-02-02T00:17:59;8.90;;;2.63;;
53391;SDS011;41667;51.922;8.850;2023-02-02T00:20:25;3.97;;;1.85;;
53391;SDS011;41667;51.922;8.850;2023-02-02T00:22:50;8.57;;;2.57;;
53391;SDS011;41667;51.922;8.850;2023-02-02T00:25:15;5.27;;;2.03;;
53391;SDS011;41667;51.922;8.850;2023-02-02T00:27:40;10.50;;;2.33;;
53391;SDS011;41667;51.922;8.850;2023-02-02T00:30:05;10.07;;;2.08;;
53391;SDS011;41667;51.922;8.850;2023-02-02T00:32:31;9.05;;;2.92;;
53391;SDS011;41667;51.922;8.850;2023-02-02T00:34:56;6.78;;;1.77;;
53391;SDS011;41667;51.922;8.850;2023-02-02T00:37:21;19.45;;;2.58;;
53391;SDS011;41667;51.922;8.850;2023-02-02T00:39:46;14.60;;;2.33;;
53391;SDS011;41667;51.922;8.850;2023-02-02T00:42:11;5.60;;;2.25;;
53391;SDS011;41667;51.922;8.850;2023-02-02T00:44:36;9.02;;;2.20;;
53391;SDS011;41667;51.922;8.850;2023-02-02T00:47:20;14.48;;;2.33;;
53391;SDS011;41667;51.922;8.850;2023-02-02T00:49:46;9.95;;;2.30;;
53391;SDS011;41667;51.922;8.850;2023-02-02T00:52:11;7.30;;;2.00;;
53391;SDS011;41667;51.922;8.850;2023-02-02T00:54:36;6.43;;;1.80;;
53391;SDS011;41667;51.922;8.850;2023-02-02T00:57:01;12.82;;;2.80;;
53391;SDS011;41667;51.922;8.850;2023-02-02T00:59:26;9.95;;;2.63;;
53391;SDS011;41667;51.922;8.850;2023-02-02T01:01:52;12.35;;;2.65;;
53391;SDS011;41667;51.922;8.850;2023-02-02T01:04:17;4.60;;;2.13;;
53391;SDS011;41667;51.922;8.850;2023-02-02T01:06:42;6.97;;;2.80;;
53391;SDS011;41667;51.922;8.850;2023-02-02T01:09:07;9.40;;;2.08;;
53391;SDS011;41667;51.922;8.850;2023-02-02T01:11:32;18.25;;;2.42;;
53391;SDS011;41667;51.922;8.850;2023-02-02T01:13:57;10.43;;;3.50;;
53391;SDS011;41667;51.922;8.850;2023-02-02T01:16:22;8.98;;;2.22;;
53391;SDS011;41667;51.922;8.850;2023-02-02T01:18:49;10.73;;;2.15;;
53391;SDS011;41667;51.922;8.850;2023-02-02T01:21:14;7.18;;;2.13;;
53391;SDS011;41667;51.922;8.850;2023-02-02T01:23:39;10.40;;;2.17;;
53391;SDS011;41667;51.922;8.850;2023-02-02T01:26:05;7.93;;;1.65;;
53391;SDS011;41667;51.922;8.850;2023-02-02T01:28:31;6.97;;;1.90;;
53391;SDS011;41667;51.922;8.850;2023-02-02T01:30:56;10.63;;;1.58;;
53391;SDS011;41667;51.922;8.850;2023-02-02T01:33:22;6.90;;;2.28;;
53391;SDS011;41667;51.922;8.850;2023-02-02T01:35:52;5.72;;;1.90;;
53391;SDS011;41667;51.922;8.850;2023-02-02T01:38:17;12.43;;;3.42;;
53391;SDS011;41667;51.922;8.850;2023-02-02T01:40:46;11.15;;;2.95;;
53391;SDS011;41667;51.922;8.850;2023-02-02T01:43:16;13.95;;;2.75;;
53391;SDS011;41667;51.922;8.850;2023-02-02T01:45:46;6.95;;;1.85;;
53391;SDS011;41667;51.922;8.850;2023-02-02T01:48:11;12.10;;;2.22;;
53391;SDS011;41667;51.922;8.850;2023-02-02T01:50:36;14.20;;;2.05;;
53391;SDS011;41667;51.922;8.850;2023-02-02T01:53:01;4.38;;;1.50;;
53391;SDS011;41667;51.922;8.850;2023-02-02T01:55:27;8.38;;;3.05;;
53391;SDS011;41667;51.922;8.850;2023-02-02T01:57:55;14.73;;;2.25;;
53391;SDS011;41667;51.922;8.850;2023-02-02T02:00:21;16.23;;;2.50;;
53391;SDS011;41667;51.922;8.850;2023-02-02T02:02:49;10.70;;;2.10;;
53391;SDS011;41667;51.922;8.850;2023-02-02T02:05:17;10.40;;;2.20;;
53391;SDS011;41667;51.922;8.850;2023-02-02T02:07:42;5.53;;;1.80;;
53391;SDS011;41667;51.922;8.850;2023-02-02T02:10:08;9.18;;;3.20;;
53391;SDS011;41667;51.922;8.850;2023-02-02T02:12:33;13.48;;;2.28;;
53391;SDS011;41667;51.922;8.850;2023-02-02T02:14:58;5.40;;;2.33;;
53391;SDS011;41667;51.922;8.850;2023-02-02T02:20:42;4.80;;;1.92;;
53391;SDS011;41667;51.922;8.850;2023-02-02T02:26:37;6.88;;;2.53;;
53391;SDS011;41667;51.922;8.850;2023-02-02T02:34:21;6.45;;;2.03;;
53391;SDS011;41667;51.922;8.850;2023-02-02T02:36:53;7.63;;;1.73;;
53391;SDS011;41667;51.922;8.850;2023-02-02T02:39:32;13.63;;;3.47;;
53391;SDS011;41667;51.922;8.850;2023-02-02T02:41:59;11.20;;;1.80;;
53391;SDS011;41667;51.922;8.850;2023-02-02T02:44:26;7.35;;;1.63;;
53391;SDS011;41667;51.922;8.850;2023-02-02T02:46:53;10.70;;;1.90;;
53391;SDS011;41667;51.922;8.850;2023-02-02T02:49:18;2.50;;;1.50;;
53391;SDS011;41667;51.922;8.850;2023-02-02T02:54:13;1.38;;;0.98;;
53391;SDS011;41667;51.922;8.850;2023-02-02T02:59:15;4.38;;;2.63;;
53391;SDS011;41667;51.922;8.850;2023-02-02T03:01:47;6.22;;;1.80;;
53391;SDS011;41667;51.922;8.850;2023-02-02T03:04:17;6.93;;;2.03;;
53391;SDS011;41667;51.922;8.850;2023-02-02T03:06:54;9.18;;;2.47;;
53391;SDS011;41667;51.922;8.850;2023-02-02T03:09:21;12.15;;;1.60;;
53391;SDS011;41667;51.922;8.850;2023-02-02T03:11:47;6.97;;;1.50;;
53391;SDS011;41667;51.922;8.850;2023-02-02T03:14:12;5.03;;;1.75;;
53391;SDS011;41667;51.922;8.850;2023-02-02T03:16:37;7.30;;;2.17;;
53391;SDS011;41667;51.922;8.850;2023-02-02T03:19:03;8.00;;;1.93;;
53391;SDS011;41667;51.922;8.850;2023-02-02T03:21:29;6.55;;;1.70;;
53391;SDS011;41667;51.922;8.850;2023-02-02T03:23:54;6.50;;;1.80;;
53391;SDS011;41667;51.922;8.850;2023-02-02T03:26:19;7.78;;;2.30;;
53391;SDS011;41667;51.922;8.850;2023-02-02T03:28:44;10.10;;;2.03;;
53391;SDS011;41667;51.922;8.850;2023-02-02T03:31:09;6.68;;;1.70;;
53391;SDS011;41667;51.922;8.850;2023-02-02T03:33:34;11.30;;;2.00;;
53391;SDS011;41667;51.922;8.850;2023-02-02T03:36:00;12.25;;;3.22;;
53391;SDS011;41667;51.922;8.850;2023-02-02T03:38:25;8.55;;;2.22;;
53391;SDS011;41667;51.922;8.850;2023-02-02T03:40:50;6.43;;;2.00;;
53391;SDS011;41667;51.922;8.850;2023-02-02T03:43:22;7.35;;;3.45;;
53391;SDS011;41667;51.922;8.850;2023-02-02T03:45:47;5.25;;;1.90;;
53391;SDS011;41667;51.922;8.850;2023-02-02T03:48:18;10.30;;;2.17;;
53391;SDS011;41667;51.922;8.850;2023-02-02T03:50:44;6.53;;;2.67;;
53391;SDS011;41667;51.922;8.850;2023-02-02T03:53:09;7.20;;;1.42;;
53391;SDS011;41667;51.922;8.850;2023-02-02T03:55:34;5.63;;;1.60;;
53391;SDS011;41667;51.922;8.850;2023-02-02T03:57:59;10.00;;;2.15;;
53391;SDS011;41667;51.922;8.850;2023-02-02T04:00:24;5.60;;;2.20;;
53391;SDS011;41667;51.922;8.850;2023-02-02T04:02:49;5.80;;;1.73;;
53391;SDS011;41667;51.922;8.850;2023-02-02T04:05:14;6.35;;;1.40;;
53391;SDS011;41667;51.922;8.850;2023-02-02T04:07:39;2.90;;;2.20;;
53391;SDS011;41667;51.922;8.850;2023-02-02T04:10:05;7.32;;;2.35;;
53391;SDS011;41667;51.922;8.850;2023-02-02T04:12:30;9.65;;;2.00;;
53391;SDS011;41667;51.922;8.850;2023-02-02T04:14:55;8.63;;;2.07;;
53391;SDS011;41667;51.922;8.850;2023-02-02T04:17:20;7.22;;;1.88;;
53391;SDS011;41667;51.922;8.850;2023-02-02T04:19:45;12.32;;;1.77;;
53391;SDS011;41667;51.922;8.850;2023-02-02T04:22:10;11.43;;;2.03;;
53391;SDS011;41667;51.922;8.850;2023-02-02T04:24:35;9.95;;;2.65;;
53391;SDS011;41667;51.922;8.850;2023-02-02T04:27:01;2.30;;;1.50;;
53391;SDS011;41667;51.922;8.850;2023-02-02T04:29:26;16.92;;;3.13;;
53391;SDS011;41667;51.922;8.850;2023-02-02T04:31:51;7.47;;;1.80;;
53391;SDS011;41667;51.922;8.850;2023-02-02T04:34:17;6.68;;;1.85;;
53391;SDS011;41667;51.922;8.850;2023-02-02T04:36:42;8.25;;;1.77;;
53391;SDS011;41667;51.922;8.850;2023-02-02T04:39:09;9.05;;;1.80;;
53391;SDS011;41667;51.922;8.850;2023-02-02T04:41:34;6.07;;;1.98;;
53391;SDS011;41667;51.922;8.850;2023-02-02T04:44:00;5.53;;;2.55;;
53391;SDS011;41667;51.922;8.850;2023-02-02T04:46:25;6.87;;;2.33;;
53391;SDS011;41667;51.922;8.850;2023-02-02T04:48:52;11.18;;;1.88;;
53391;SDS011;41667;51.922;8.850;2023-02-02T04:51:17;6.10;;;2.25;;
53391;SDS011;41667;51.922;8.850;2023-02-02T04:53:42;6.65;;;1.92;;
53391;SDS011;41667;51.922;8.850;2023-02-02T04:56:09;9.65;;;2.45;;
53391;SDS011;41667;51.922;8.850;2023-02-02T04:58:35;18.95;;;2.78;;
53391;SDS011;41667;51.922;8.850;2023-02-02T05:01:00;9.77;;;2.53;;
53391;SDS011;41667;51.922;8.850;2023-02-02T05:03:25;9.45;;;2.97;;
53391;SDS011;41667;51.922;8.850;2023-02-02T05:05:51;5.13;;;2.38;;
53391;SDS011;41667;51.922;8.850;2023-02-02T05:08:24;9.98;;;3.05;;
53391;SDS011;41667;51.922;8.850;2023-02-02T05:10:49;3.85;;;1.77;;
53391;SDS011;41667;51.922;8.850;2023-02-02T05:13:14;7.95;;;2.30;;
53391;SDS011;41667;51.922;8.850;2023-02-02T05:15:39;5.97;;;2.40;;
53391;SDS011;41667;51.922;8.850;2023-02-02T05:18:04;13.50;;;3.20;;
53391;SDS011;41667;51.922;8.850;2023-02-02T05:20:29;10.15;;;2.45;;
53391;SDS011;41667;51.922;8.850;2023-02-02T05:22:55;8.23;;;2.23;;
53391;SDS011;41667;51.922;8.850;2023-02-02T05:25:20;6.07;;;1.90;;
53391;SDS011;41667;51.922;8.850;2023-02-02T05:27:45;10.15;;;2.22;;
53391;SDS011;41667;51.922;8.850;2023-02-02T05:30:11;4.25;;;1.88;;
53391;SDS011;41667;51.922;8.850;2023-02-02T05:32:38;8.02;;;2.33;;
53391;SDS011;41667;51.922;8.850;2023-02-02T05:35:03;8.70;;;1.98;;
53391;SDS011;41667;51.922;8.850;2023-02-02T05:37:29;2.90;;;1.50;;
53391;SDS011;41667;51.922;8.850;2023-02-02T05:39:54;8.60;;;1.20;;
53391;SDS011;41667;51.922;8.850;2023-02-02T05:42:19;4.43;;;1.60;;
53391;SDS011;41667;51.922;8.850;2023-02-02T05:44:44;5.85;;;1.65;;
53391;SDS011;41667;51.922;8.850;2023-02-02T05:47:09;7.73;;;2.33;;
53391;SDS011;41667;51.922;8.850;2023-02-02T05:49:34;3.15;;;1.77;;
53391;SDS011;41667;51.922;8.850;2023-02-02T05:51:59;5.50;;;1.23;;
53391;SDS011;41667;51.922;8.850;2023-02-02T05:54:25;7.50;;;1.37;;
53391;SDS011;41667;51.922;8.850;2023-02-02T05:56:51;3.08;;;1.65;;
53391;SDS011;41667;51.922;8.850;2023-02-02T05:59:17;2.55;;;1.40;;
53391;SDS011;41667;51.922;8.850;2023-02-02T06:01:43;0.88;;;0.75;;
53391;SDS011;41667;51.922;8.850;2023-02-02T06:04:08;7.43;;;1.20;;
53391;SDS011;41667;51.922;8.850;2023-02-02T06:06:33;10.53;;;2.17;;
53391;SDS011;41667;51.922;8.850;2023-02-02T06:08:59;8.88;;;1.40;;
53391;SDS011;41667;51.922;8.850;2023-02-02T06:11:24;3.92;;;2.00;;
53391;SDS011;41667;51.922;8.850;2023-02-02T06:13:50;4.43;;;1.20;;
53391;SDS011;41667;51.922;8.850;2023-02-02T06:16:15;3.90;;;1.73;;
53391;SDS011;41667;51.922;8.850;2023-02-02T06:18:40;3.95;;;1.48;;
53391;SDS011;41667;51.922;8.850;2023-02-02T06:21:05;12.95;;;0.82;;
53391;SDS011;41667;51.922;8.850;2023-02-02T06:23:30;7.38;;;1.17;;
53391;SDS011;41667;51.922;8.850;2023-02-02T06:25:56;7.78;;;1.50;;
53391;SDS011;41667;51.922;8.850;2023-02-02T06:28:21;2.03;;;1.27;;
53391;SDS011;41667;51.922;8.850;2023-02-02T06:30:46;4.00;;;1.73;;
53391;SDS011;41667;51.922;8.850;2023-02-02T06:33:11;3.67;;;1.10;;
53391;SDS011;41667;51.922;8.850;2023-02-02T06:35:36;2.83;;;1.75;;
53391;SDS011;41667;51.922;8.850;2023-02-02T06:38:01;2.83;;;1.10;;
53391;SDS011;41667;51.922;8.850;2023-02-02T06:40:27;3.72;;;1.52;;
53391;SDS011;41667;51.922;8.850;2023-02-02T06:42:59;4.53;;;1.00;;
53391;SDS011;41667;51.922;8.850;2023-02-02T06:47:49;7.63;;;1.25;;
53391;SDS011;41667;51.922;8.850;2023-02-02T06:50:14;10.60;;;1.33;;
53391;SDS011;41667;51.922;8.850;2023-02-02T06:52:45;5.15;;;1.30;;
53391;SDS011;41667;51.922;8.850;2023-02-02T06:55:10;6.53;;;1.58;;
53391;SDS011;41667;51.922;8.850;2023-02-02T06:57:35;7.63;;;1.23;;
53391;SDS011;41667;51.922;8.850;2023-02-02T07:00:01;8.40;;;2.35;;
53391;SDS011;41667;51.922;8.850;2023-02-02T07:02:26;5.63;;;1.80;;
53391;SDS011;41667;51.922;8.850;2023-02-02T07:04:51;1.23;;;1.13;;
53391;SDS011;41667;51.922;8.850;2023-02-02T07:07:16;4.22;;;1.17;;
53391;SDS011;41667;51.922;8.850;2023-02-02T07:09:42;2.42;;;1.00;;
53391;SDS011;41667;51.922;8.850;2023-02-02T07:12:07;4.47;;;2.50;;
53391;SDS011;41667;51.922;8.850;2023-02-02T07:14:32;2.93;;;1.50;;
53391;SDS011;41667;51.922;8.850;2023-02-02T07:16:57;14.10;;;1.67;;
53391;SDS011;41667;51.922;8.850;2023-02-02T07:19:22;4.07;;;1.83;;
53391;SDS011;41667;51.922;8.850;2023-02-02T07:21:47;5.10;;;1.10;;
53391;SDS011;41667;51.922;8.850;2023-02-02T07:24:12;1.88;;;0.93;;
53391;SDS011;41667;51.922;8.850;2023-02-02T07:26:38;7.10;;;1.20;;
53391;SDS011;41667;51.922;8.850;2023-02-02T07:29:03;4.72;;;1.00;;
53391;SDS011;41667;51.922;8.850;2023-02-02T07:31:28;3.08;;;0.95;;
53391;SDS011;41667;51.922;8.850;2023-02-02T07:33:54;2.25;;;1.13;;
53391;SDS011;41667;51.922;8.850;2023-02-02T07:36:20;6.20;;;1.80;;
53391;SDS011;41667;51.922;8.850;2023-02-02T07:38:46;5.88;;;1.00;;
53391;SDS011;41667;51.922;8.850;2023-02-02T07:41:11;8.23;;;1.40;;
53391;SDS011;41667;51.922;8.850;2023-02-02T07:43:37;3.25;;;0.95;;
53391;SDS011;41667;51.922;8.850;2023-02-02T07:46:04;3.33;;;1.20;;
53391;SDS011;41667;51.922;8.850;2023-02-02T07:48:31;1.85;;;0.93;;
53391;SDS011;41667;51.922;8.850;2023-02-02T07:50:59;3.13;;;1.20;;
53391;SDS011;41667;51.922;8.850;2023-02-02T07:53:25;7.78;;;1.33;;
53391;SDS011;41667;51.922;8.850;2023-02-02T07:55:50;8.05;;;2.13;;
53391;SDS011;41667;51.922;8.850;2023-02-02T07:58:15;2.83;;;1.10;;
53391;SDS011;41667;51.922;8.850;2023-02-02T08:00:41;2.60;;;1.47;;
53391;SDS011;41667;51.922;8.850;2023-02-02T08:03:08;3.83;;;1.50;;
53391;SDS011;41667;51.922;8.850;2023-02-02T08:05:34;1.48;;;0.82;;
53391;SDS011;41667;51.922;8.850;2023-02-02T08:07:59;10.60;;;2.45;;
53391;SDS011;41667;51.922;8.850;2023-02-02T08:10:24;3.78;;;1.30;;
53391;SDS011;41667;51.922;8.850;2023-02-02T08:12:49;5.32;;;1.73;;
53391;SDS011;41667;51.922;8.850;2023-02-02T08:15:14;3.88;;;1.45;;
53391;SDS011;41667;51.922;8.850;2023-02-02T08:17:43;4.63;;;0.80;;
53391;SDS011;41667;51.922;8.850;2023-02-02T08:20:08;3.92;;;1.00;;
53391;SDS011;41667;51.922;8.850;2023-02-02T08:22:34;5.63;;;1.20;;
53391;SDS011;41667;51.922;8.850;2023-02-02T08:24:59;1.10;;;1.00;;
53391;SDS011;41667;51.922;8.850;2023-02-02T08:27:24;0.98;;;0.98;;
53391;SDS011;41667;51.922;8.850;2023-02-02T08:29:49;4.60;;;1.27;;
53391;SDS011;41667;51.922;8.850;2023-02-02T08:32:14;3.37;;;1.53;;
53391;SDS011;41667;51.922;8.850;2023-02-02T08:34:39;6.78;;;2.05;;
53391;SDS011;41667;51.922;8.850;2023-02-02T08:37:04;9.40;;;1.23;;
53391;SDS011;41667;51.922;8.850;2023-02-02T08:39:30;5.17;;;1.57;;
53391;SDS011;41667;51.922;8.850;2023-02-02T08:41:55;4.53;;;1.20;;
53391;SDS011;41667;51.922;8.850;2023-02-02T08:44:20;3.88;;;1.45;;
53391;SDS011;41667;51.922;8.850;2023-02-02T08:46:45;2.72;;;1.80;;
53391;SDS011;41667;51.922;8.850;2023-02-02T08:49:11;6.13;;;1.52;;
53391;SDS011;41667;51.922;8.850;2023-02-02T08:51:36;2.00;;;1.30;;
53391;SDS011;41667;51.922;8.850;2023-02-02T08:54:01;2.67;;;1.47;;
53391;SDS011;41667;51.922;8.850;2023-02-02T08:56:27;1.63;;;1.02;;
53391;SDS011;41667;51.922;8.850;2023-02-02T08:58:55;9.50;;;1.30;;
53391;SDS011;41667;51.922;8.850;2023-02-02T09:01:23;2.55;;;1.58;;
53391;SDS011;41667;51.922;8.850;2023-02-02T09:03:51;5.28;;;0.80;;
53391;SDS011;41667;51.922;8.850;2023-02-02T09:06:17;5.15;;;1.10;;
53391;SDS011;41667;51.922;8.850;2023-02-02T09:08:43;7.95;;;1.23;;
53391;SDS011;41667;51.922;8.850;2023-02-02T09:11:09;6.53;;;1.48;;
53391;SDS011;41667;51.922;8.850;2023-02-02T09:13:36;6.07;;;1.35;;
53391;SDS011;41667;51.922;8.850;2023-02-02T09:16:02;6.20;;;1.40;;
53391;SDS011;41667;51.922;8.850;2023-02-02T09:18:27;8.93;;;1.73;;
53391;SDS011;41667;51.922;8.850;2023-02-02T09:20:53;2.65;;;1.35;;
53391;SDS011;41667;51.922;8.850;2023-02-02T09:23:18;7.43;;;1.33;;
53391;SDS011;41667;51.922;8.850;2023-02-02T09:25:43;7.45;;;1.02;;
53391;SDS011;41667;51.922;8.850;2023-02-02T09:28:08;2.75;;;1.27;;
53391;SDS011;41667;51.922;8.850;2023-02-02T09:30:33;5.38;;;1.00;;
53391;SDS011;41667;51.922;8.850;2023-02-02T09:32:58;3.30;;;1.00;;
53391;SDS011;41667;51.922;8.850;2023-02-02T09:35:23;2.70;;;1.20;;
53391;SDS011;41667;51.922;8.850;2023-02-02T09:37:49;2.95;;;1.27;;
53391;SDS011;41667;51.922;8.850;2023-02-02T09:40:14;5.40;;;1.40;;
53391;SDS011;41667;51.922;8.850;2023-02-02T09:42:45;1.85;;;1.10;;
53391;SDS011;41667;51.922;8.850;2023-02-02T09:45:17;8.00;;;2.22;;
53391;SDS011;41667;51.922;8.850;2023-02-02T09:47:50;3.50;;;1.23;;
53391;SDS011;41667;51.922;8.850;2023-02-02T09:52:55;5.28;;;2.33;;
53391;SDS011;41667;51.922;8.850;2023-02-02T09:55:31;6.53;;;2.15;;
53391;SDS011;41667;51.922;8.850;2023-02-02T10:00:44;5.95;;;1.75;;
53391;SDS011;41667;51.922;8.850;2023-02-02T10:03:23;2.53;;;1.40;;
53391;SDS011;41667;51.922;8.850;2023-02-02T10:06:04;4.80;;;1.42;;
53391;SDS011;41667;51.922;8.850;2023-02-02T10:08:38;7.53;;;1.65;;
53391;SDS011;41667;51.922;8.850;2023-02-02T10:11:13;3.45;;;0.88;;
53391;SDS011;41667;51.922;8.850;2023-02-02T10:13:42;0.93;;;0.93;;
53391;SDS011;41667;51.922;8.850;2023-02-02T10:16:13;4.38;;;1.27;;
53391;SDS011;41667;51.922;8.850;2023-02-02T10:21:10;2.60;;;1.05;;
53391;SDS011;41667;51.922;8.850;2023-02-02T10:23:37;2.67;;;1.40;;
53391;SDS011;41667;51.922;8.850;2023-02-02T10:26:04;8.20;;;1.60;;
53391;SDS011;41667;51.922;8.850;2023-02-02T10:28:40;6.13;;;1.65;;
53391;SDS011;41667;51.922;8.850;2023-02-02T10:31:06;9.32;;;1.23;;
53391;SDS011;41667;51.922;8.850;2023-02-02T10:33:37;6.72;;;1.88;;
53391;SDS011;41667;51.922;8.850;2023-02-02T10:36:06;9.70;;;1.98;;
53391;SDS011;41667;51.922;8.850;2023-02-02T10:38:52;7.75;;;1.85;;
53391;SDS011;41667;51.922;8.850;2023-02-02T10:41:40;5.78;;;1.17;;
53391;SDS011;41667;51.922;8.850;2023-02-02T10:44:13;2.17;;;1.40;;
53391;SDS011;41667;51.922;8.850;2023-02-02T10:46:42;2.95;;;1.00;;
53391;SDS011;41667;51.922;8.850;2023-02-02T10:51:32;4.07;;;1.17;;
53391;SDS011;41667;51.922;8.850;2023-02-02T10:53:58;2.33;;;1.27;;
53391;SDS011;41667;51.922;8.850;2023-02-02T10:56:29;4.70;;;1.60;;
53391;SDS011;41667;51.922;8.850;2023-02-02T10:59:05;4.82;;;1.17;;
53391;SDS011;41667;51.922;8.850;2023-02-02T11:01:31;1.67;;;1.10;;
53391;SDS011;41667;51.922;8.850;2023-02-02T11:03:56;3.70;;;1.47;;
53391;SDS011;41667;51.922;8.850;2023-02-02T11:06:39;3.88;;;1.65;;
53391;SDS011;41667;51.922;8.850;2023-02-02T11:09:14;3.28;;;1.98;;
53391;SDS011;41667;51.922;8.850;2023-02-02T11:11:41;4.60;;;1.85;;
53391;SDS011;41667;51.922;8.850;2023-02-02T11:16:43;4.93;;;1.90;;
53391;SDS011;41667;51.922;8.850;2023-02-02T11:21:40;11.27;;;2.45;;
53391;SDS011;41667;51.922;8.850;2023-02-02T11:24:19;10.82;;;2.92;;
53391;SDS011;41667;51.922;8.850;2023-02-02T11:26:46;7.20;;;2.50;;
53391;SDS011;41667;51.922;8.850;2023-02-02T11:29:13;6.05;;;2.03;;
53391;SDS011;41667;51.922;8.850;2023-02-02T11:31:38;8.95;;;2.28;;
53391;SDS011;41667;51.922;8.850;2023-02-02T11:34:14;4.70;;;1.58;;
53391;SDS011;41667;51.922;8.850;2023-02-02T11:36:40;9.23;;;1.60;;
53391;SDS011;41667;51.922;8.850;2023-02-02T11:39:22;9.52;;;2.33;;
53391;SDS011;41667;51.922;8.850;2023-02-02T11:41:47;4.65;;;2.22;;
53391;SDS011;41667;51.922;8.850;2023-02-02T11:44:19;7.63;;;2.50;;
53391;SDS011;41667;51.922;8.850;2023-02-02T11:46:47;8.98;;;3.17;;
53391;SDS011;41667;51.922;8.850;2023-02-02T11:49:14;10.75;;;2.67;;
53391;SDS011;41667;51.922;8.850;2023-02-02T11:51:40;7.25;;;2.10;;
53391;SDS011;41667;51.922;8.850;2023-02-02T11:56:31;6.40;;;2.47;;
53391;SDS011;41667;51.922;8.850;2023-02-02T11:58:57;11.88;;;3.58;;
53391;SDS011;41667;51.922;8.850;2023-02-02T12:03:50;6.30;;;2.40;;
53391;SDS011;41667;51.922;8.850;2023-02-02T12:06:19;6.03;;;2.40;;
53391;SDS011;41667;51.922;8.850;2023-02-02T12:08:45;4.97;;;2.28;;
53391;SDS011;41667;51.922;8.850;2023-02-02T12:11:15;9.95;;;2.15;;
53391;SDS011;41667;51.922;8.850;2023-02-02T12:13:48;9.93;;;2.17;;
53391;SDS011;41667;51.922;8.850;2023-02-02T12:16:25;3.33;;;1.73;;
53391;SDS011;41667;51.922;8.850;2023-02-02T12:24:16;1.63;;;1.30;;
53391;SDS011;41667;51.922;8.850;2023-02-02T12:26:44;1.98;;;1.40;;
53391;SDS011;41667;51.922;8.850;2023-02-02T12:31:54;7.70;;;1.48;;
53391;SDS011;41667;51.922;8.850;2023-02-02T12:36:55;2.05;;;1.40;;
53391;SDS011;41667;51.922;8.850;2023-02-02T12:45:04;10.10;;;1.88;;
53391;SDS011;41667;51.922;8.850;2023-02-02T13:00:26;3.28;;;1.83;;
53391;SDS011;41667;51.922;8.850;2023-02-02T13:03:00;4.03;;;1.52;;
53391;SDS011;41667;51.922;8.850;2023-02-02T13:08:03;3.08;;;1.92;;
53391;SDS011;41667;51.922;8.850;2023-02-02T13:10:43;5.45;;;1.63;;
53391;SDS011;41667;51.922;8.850;2023-02-02T13:13:15;5.68;;;1.50;;
53391;SDS011;41667;51.922;8.850;2023-02-02T13:15:41;12.70;;;2.30;;
53391;SDS011;41667;51.922;8.850;2023-02-02T13:18:44;6.30;;;2.13;;
53391;SDS011;41667;51.922;8.850;2023-02-02T13:21:00;4.55;;;2.33;;
53391;SDS011;41667;51.922;8.850;2023-02-02T13:23:27;4.78;;;2.35;;
53391;SDS011;41667;51.922;8.850;2023-02-02T13:26:05;4.28;;;2.20;;
53391;SDS011;41667;51.922;8.850;2023-02-02T13:28:49;7.55;;;2.63;;
53391;SDS011;41667;51.922;8.850;2023-02-02T13:31:21;5.20;;;2.42;;
53391;SDS011;41667;51.922;8.850;2023-02-02T13:33:48;6.05;;;2.33;;
53391;SDS011;41667;51.922;8.850;2023-02-02T13:36:19;3.67;;;2.00;;
53391;SDS011;41667;51.922;8.850;2023-02-02T13:38:49;7.47;;;1.70;;
53391;SDS011;41667;51.922;8.850;2023-02-02T13:41:15;1.67;;;1.58;;
53391;SDS011;41667;51.922;8.850;2023-02-02T13:43:53;1.45;;;1.35;;
53391;SDS011;41667;51.922;8.850;2023-02-02T13:46:25;4.15;;;1.63;;
53391;SDS011;41667;51.922;8.850;2023-02-02T13:48:57;4.03;;;1.55;;
53391;SDS011;41667;51.922;8.850;2023-02-02T14:01:32;3.50;;;1.63;;
53391;SDS011;41667;51.922;8.850;2023-02-02T14:03:57;4.50;;;1.45;;
53391;SDS011;41667;51.922;8.850;2023-02-02T14:06:24;2.67;;;1.42;;
53391;SDS011;41667;51.922;8.850;2023-02-02T14:08:52;7.38;;;1.88;;
53391;SDS011;41667;51.922;8.850;2023-02-02T14:11:34;5.93;;;2.15;;
53391;SDS011;41667;51.922;8.850;2023-02-02T14:14:14;5.20;;;1.50;;
53391;SDS011;41667;51.922;8.850;2023-02-02T14:16:59;6.80;;;1.65;;
53391;SDS011;41667;51.922;8.850;2023-02-02T14:26:58;5.15;;;1.92;;
53391;SDS011;41667;51.922;8.850;2023-02-02T14:31:59;1.60;;;1.45;;
53391;SDS011;41667;51.922;8.850;2023-02-02T14:34:58;2.78;;;1.45;;
53391;SDS011;41667;51.922;8.850;2023-02-02T14:42:18;1.43;;;1.33;;
53391;SDS011;41667;51.922;8.850;2023-02-02T14:45:05;1.50;;;1.40;;
53391;SDS011;41667;51.922;8.850;2023-02-02T14:50:15;4.37;;;1.57;;
53391;SDS011;41667;51.922;8.850;2023-02-02T14:52:42;4.97;;;1.50;;
53391;SDS011;41667;51.922;8.850;2023-02-02T14:55:17;3.50;;;1.58;;
53391;SDS011;41667;51.922;8.850;2023-02-02T14:57:42;2.80;;;1.60;;
53391;SDS011;41667;51.922;8.850;2023-02-02T15:00:20;1.63;;;1.10;;
53391;SDS011;41667;51.922;8.850;2023-02-02T15:02:47;1.70;;;1.50;;
53391;SDS011;41667;51.922;8.850;2023-02-02T15:08:13;1.67;;;1.58;;
53391;SDS011;41667;51.922;8.850;2023-02-02T15:13:20;3.80;;;1.50;;
53391;SDS011;41667;51.922;8.850;2023-02-02T15:15:47;1.70;;;1.50;;
53391;SDS011;41667;51.922;8.850;2023-02-02T15:18:18;4.43;;;2.00;;
53391;SDS011;41667;51.922;8.850;2023-02-02T15:20:50;3.45;;;1.90;;
53391;SDS011;41667;51.922;8.850;2023-02-02T15:23:32;2.33;;;1.98;;
53391;SDS011;41667;51.922;8.850;2023-02-02T15:31:05;2.28;;;2.08;;
53391;SDS011;41667;51.922;8.850;2023-02-02T15:33:35;2.33;;;2.10;;
53391;SDS011;41667;51.922;8.850;2023-02-02T15:36:02;3.05;;;2.38;;
53391;SDS011;41667;51.922;8.850;2023-02-02T15:38:35;8.50;;;2.42;;
53391;SDS011;41667;51.922;8.850;2023-02-02T15:41:02;5.13;;;2.40;;
53391;SDS011;41667;51.922;8.850;2023-02-02T15:43:28;3.38;;;2.05;;
53391;SDS011;41667;51.922;8.850;2023-02-02T15:45:54;3.72;;;2.38;;
53391;SDS011;41667;51.922;8.850;2023-02-02T15:48:28;5.50;;;2.42;;
53391;SDS011;41667;51.922;8.850;2023-02-02T15:50:54;1.98;;;1.80;;
53391;SDS011;41667;51.922;8.850;2023-02-02T15:53:21;3.08;;;2.63;;
53391;SDS011;41667;51.922;8.850;2023-02-02T15:55:47;4.95;;;2.67;;
53391;SDS011;41667;51.922;8.850;2023-02-02T15:58:26;6.90;;;3.45;;
53391;SDS011;41667;51.922;8.850;2023-02-02T16:00:56;4.20;;;3.20;;
53391;SDS011;41667;51.922;8.850;2023-02-02T16:03:25;3.10;;;2.45;;
53391;SDS011;41667;51.922;8.850;2023-02-02T16:05:53;3.53;;;2.22;;
53391;SDS011;41667;51.922;8.850;2023-02-02T16:08:27;2.88;;;2.50;;
53391;SDS011;41667;51.922;8.850;2023-02-02T16:11:02;3.75;;;2.53;;
53391;SDS011;41667;51.922;8.850;2023-02-02T16:13:27;3.88;;;2.95;;
53391;SDS011;41667;51.922;8.850;2023-02-02T16:15:57;5.60;;;2.55;;
53391;SDS011;41667;51.922;8.850;2023-02-02T16:18:22;3.78;;;2.55;;
53391;SDS011;41667;51.922;8.850;2023-02-02T16:20:47;3.22;;;2.60;;
53391;SDS011;41667;51.922;8.850;2023-02-02T16:23:14;3.90;;;2.45;;
53391;SDS011;41667;51.922;8.850;2023-02-02T16:25:45;2.40;;;2.20;;
53391;SDS011;41667;51.922;8.850;2023-02-02T16:28:12;7.78;;;3.30;;
53391;SDS011;41667;51.922;8.850;2023-02-02T16:30:38;4.80;;;3.67;;
53391;SDS011;41667;51.922;8.850;2023-02-02T16:35:47;6.13;;;3.67;;
53391;SDS011;41667;51.922;8.850;2023-02-02T16:40:47;7.63;;;4.65;;
53391;SDS011;41667;51.922;8.850;2023-02-02T16:43:15;7.18;;;4.47;;